Arctic Princess — UHTA — position and weather

sailwx.info

Track history (hours):
 
Tides and Currents Weather Stations Pressure Air Temp Water Temp Dewpoint Dewpoint Depression Visibility Wind Speed Wind Dir Waves Ship Positions

Arctic Princess

Last reported at 2018-Feb-17 09:37 UTC. Time now 2018-Feb-25 08:14 UTC.
Position N 70°53' E 030°58'.

Length 69 m; draft 4.3 m.

Type: Cargo ship. MMSI: 273219900.

Date/timePositionNaut miles runAvg speedWind from/ knotsBaromVisibWave heightAir tempDewpointWater temp
2018-Feb-17 09:37N 70°53' E 030°58'1 9.3
2018-Feb-17 09:30N 70°52' E 030°60'5 9.4
2018-Feb-17 09:00N 70°48' E 031°09'5 9.3
2018-Feb-17 08:29N 70°45' E 031°18'5 8.8
2018-Feb-17 07:59N 70°41' E 031°27'103 7.9
2018-Feb-16 18:49N 69°03' E 033°05'2 6.3
2018-Feb-16 18:31N 69°01' E 033°03'3 6.5
2018-Feb-16 18:00N 68°58' E 033°02'2 2.9
2018-Feb-16 17:29N 68°57' E 033°02'0 0.0
2018-Feb-16 16:59N 68°57' E 033°02'0 0.0
2018-Feb-16 16:23N 68°57' E 033°02'0 0.0
2018-Feb-16 15:59N 68°57' E 033°02'0 0.0
2018-Feb-16 15:29N 68°57' E 033°02'0 0.0
2018-Feb-16 14:59N 68°57' E 033°02'0 0.0
2018-Feb-16 14:29N 68°57' E 033°02'0 0.0
2018-Feb-16 13:59N 68°57' E 033°02'0 0.0
2018-Feb-16 13:29N 68°57' E 033°02'0 0.0
2018-Feb-16 12:59N 68°57' E 033°02'0 0.0
2018-Feb-16 12:29N 68°57' E 033°02'0 0.0
2018-Feb-16 11:59N 68°57' E 033°02'0 0.0
2018-Feb-16 11:29N 68°57' E 033°02'0 0.0
2018-Feb-16 10:59N 68°57' E 033°02'0 0.0
2018-Feb-16 10:29N 68°57' E 033°02'0 0.0
2018-Feb-16 09:59N 68°57' E 033°02'0 0.0
2018-Feb-16 09:29N 68°57' E 033°02'0 0.0
2018-Feb-16 08:59N 68°57' E 033°02'0 0.0
2018-Feb-16 08:29N 68°57' E 033°02'0 0.0
2018-Feb-16 07:59N 68°57' E 033°02'0 0.0
2018-Feb-16 07:29N 68°57' E 033°02'0 0.0
2018-Feb-16 06:59N 68°57' E 033°02'0 0.0
2018-Feb-16 06:29N 68°57' E 033°02'0 0.0
2018-Feb-16 05:59N 68°57' E 033°02'0 0.0
2018-Feb-16 05:29N 68°57' E 033°02'0 0.0
2018-Feb-16 04:53N 68°57' E 033°02'0 0.0
2018-Feb-16 04:29N 68°57' E 033°02'0 0.0
2018-Feb-16 03:59N 68°57' E 033°02'0 0.0
2018-Feb-16 03:29N 68°57' E 033°02'0 0.0
2018-Feb-16 02:59N 68°57' E 033°02'0 0.0
2018-Feb-16 02:29N 68°57' E 033°02'0 0.0
2018-Feb-16 01:59N 68°57' E 033°02'0 0.0
2018-Feb-16 01:29N 68°57' E 033°02'0 0.0
2018-Feb-16 00:59N 68°57' E 033°02'0 0.0
2018-Feb-16 00:29N 68°57' E 033°02'0 0.0
2018-Feb-15 23:59N 68°57' E 033°02'0 0.0
2018-Feb-15 23:20N 68°57' E 033°02'0 0.0
2018-Feb-15 22:59N 68°57' E 033°02'0 0.0
2018-Feb-15 22:29N 68°57' E 033°02'0 0.0
2018-Feb-15 21:59N 68°57' E 033°02'0 0.0
2018-Feb-15 21:29N 68°57' E 033°02'0 0.0
2018-Feb-15 20:59N 68°57' E 033°02'0 0.0
2018-Feb-15 20:29N 68°57' E 033°02'0 0.0
2018-Feb-15 19:59N 68°57' E 033°02'0 0.0
2018-Feb-15 19:29N 68°57' E 033°02'0 0.0
2018-Feb-15 18:59N 68°57' E 033°02'0 0.0
2018-Feb-15 18:29N 68°57' E 033°02'0 0.0
2018-Feb-15 17:59N 68°57' E 033°02'0 0.0
2018-Feb-15 17:29N 68°57' E 033°02'0 0.0
2018-Feb-15 16:59N 68°57' E 033°02'0 0.0
2018-Feb-15 16:29N 68°57' E 033°02'0 0.0
2018-Feb-15 15:59N 68°57' E 033°02'0 0.0
2018-Feb-15 15:29N 68°57' E 033°02'0 0.0
2018-Feb-15 14:59N 68°57' E 033°02'0 0.0
2018-Feb-15 14:29N 68°57' E 033°02'0 0.0
2018-Feb-15 13:59N 68°57' E 033°02'0 0.0
2018-Feb-15 13:29N 68°57' E 033°02'0 0.0
2018-Feb-15 12:59N 68°57' E 033°02'0 0.0
2018-Feb-15 12:29N 68°57' E 033°02'0 0.0
2018-Feb-15 11:59N 68°57' E 033°02'0 0.0
2018-Feb-15 11:29N 68°57' E 033°02'0 0.0
2018-Feb-15 10:59N 68°57' E 033°02'0 0.0
2018-Feb-15 10:29N 68°57' E 033°02'0 0.0
2018-Feb-15 09:59N 68°57' E 033°02'0 0.0
2018-Feb-15 09:26N 68°57' E 033°02'0 0.0
2018-Feb-15 08:59N 68°57' E 033°02'0 0.0
2018-Feb-15 08:29N 68°57' E 033°02'0 0.0
2018-Feb-15 07:59N 68°57' E 033°02'0 0.0
2018-Feb-15 07:29N 68°57' E 033°02'0 0.0
2018-Feb-15 06:59N 68°57' E 033°02'0 0.0
2018-Feb-15 06:23N 68°57' E 033°02'0 0.0
2018-Feb-15 05:59N 68°57' E 033°02'0 0.0
2018-Feb-15 05:29N 68°57' E 033°02'0 0.0
2018-Feb-15 04:59N 68°57' E 033°02'0 0.0
2018-Feb-15 04:29N 68°57' E 033°02'0 0.0
2018-Feb-15 03:59N 68°57' E 033°02'0 0.0
2018-Feb-15 03:29N 68°57' E 033°02'0 0.0
2018-Feb-15 02:59N 68°57' E 033°02'0 0.0
2018-Feb-15 02:29N 68°57' E 033°02'0 0.0
2018-Feb-15 01:59N 68°57' E 033°02'0 0.0
2018-Feb-15 01:29N 68°57' E 033°02'0 0.0
2018-Feb-15 00:59N 68°57' E 033°02'0 0.0
2018-Feb-15 00:29N 68°57' E 033°02'0 0.0
2018-Feb-14 23:59N 68°57' E 033°02'0 0.0
2018-Feb-14 23:26N 68°57' E 033°02'0 0.0
2018-Feb-14 22:59N 68°57' E 033°02'0 0.0
2018-Feb-14 22:29N 68°57' E 033°02'0 0.0
2018-Feb-14 21:59N 68°57' E 033°02'0 0.0
2018-Feb-14 21:29N 68°57' E 033°02'0 0.0
2018-Feb-14 20:59N 68°57' E 033°02'0 0.0
2018-Feb-14 20:29N 68°57' E 033°02'0 0.0
2018-Feb-14 19:59N 68°57' E 033°02'0 0.0
2018-Feb-14 19:29N 68°57' E 033°02'0 0.0
2018-Feb-14 18:59N 68°57' E 033°02'0 0.0
2018-Feb-14 18:29N 68°57' E 033°02'0 0.0
2018-Feb-14 17:59N 68°57' E 033°02'0 0.0
2018-Feb-14 17:29N 68°57' E 033°02'0 0.0
2018-Feb-14 16:59N 68°57' E 033°02'0 0.0
2018-Feb-14 16:29N 68°57' E 033°02'0 0.0
2018-Feb-14 15:59N 68°57' E 033°02'0 0.0
2018-Feb-14 15:29N 68°57' E 033°02'0 0.0
2018-Feb-14 14:59N 68°57' E 033°02'0 0.0
2018-Feb-14 14:29N 68°57' E 033°02'0 0.0
2018-Feb-14 13:59N 68°57' E 033°02'0 0.0
2018-Feb-14 13:29N 68°57' E 033°02'0 0.0
2018-Feb-14 12:59N 68°57' E 033°02'0 0.0
2018-Feb-14 12:29N 68°57' E 033°02'0 0.0
2018-Feb-14 11:59N 68°57' E 033°02'0 0.0
2018-Feb-14 11:29N 68°57' E 033°02'0 0.0
2018-Feb-14 10:59N 68°57' E 033°02'0 0.0
2018-Feb-14 10:29N 68°57' E 033°02'0 0.0
2018-Feb-14 09:59N 68°57' E 033°02'0 0.0
2018-Feb-14 09:29N 68°57' E 033°02'0 0.0
2018-Feb-14 08:58N 68°57' E 033°02'0 0.0
2018-Feb-14 08:29N 68°57' E 033°02'0 0.0
2018-Feb-14 07:59N 68°57' E 033°02'0 0.0
2018-Feb-14 07:29N 68°57' E 033°02'0 0.0
2018-Feb-14 06:59N 68°57' E 033°02'0 0.0
2018-Feb-14 06:29N 68°57' E 033°02'0 0.0
2018-Feb-14 05:59N 68°57' E 033°02'0 0.0
2018-Feb-14 05:29N 68°57' E 033°02'0 0.0
2018-Feb-14 04:59N 68°57' E 033°02'0 0.0
2018-Feb-14 04:29N 68°57' E 033°02'0 0.0
2018-Feb-14 03:59N 68°57' E 033°02'0 0.0
2018-Feb-14 03:29N 68°57' E 033°02'0 0.0
2018-Feb-14 02:59N 68°57' E 033°02'0 0.0
2018-Feb-14 02:29N 68°57' E 033°02'0 0.0
2018-Feb-14 01:59N 68°57' E 033°02'0 0.0
2018-Feb-14 01:25N 68°57' E 033°02'0 0.0
2018-Feb-14 00:59N 68°57' E 033°02'0 0.0
2018-Feb-14 00:29N 68°57' E 033°02'0 0.0
2018-Feb-13 23:58N 68°57' E 033°02'0 0.0
2018-Feb-13 23:28N 68°57' E 033°02'0 0.0
2018-Feb-13 22:59N 68°57' E 033°02'0 0.0
2018-Feb-13 22:29N 68°57' E 033°02'0 0.0
2018-Feb-13 21:59N 68°57' E 033°02'0 0.0
2018-Feb-13 21:29N 68°57' E 033°02'0 0.0
2018-Feb-13 20:59N 68°57' E 033°02'0 0.0
2018-Feb-13 20:28N 68°57' E 033°02'0 0.0
2018-Feb-13 19:58N 68°57' E 033°02'0 0.0
2018-Feb-13 19:29N 68°57' E 033°02'0 0.0
2018-Feb-13 19:00N 68°57' E 033°02'0 0.0
2018-Feb-13 18:30N 68°57' E 033°02'0 0.0
2018-Feb-13 18:00N 68°57' E 033°02'0 0.0
2018-Feb-13 17:30N 68°57' E 033°02'0 0.0
2018-Feb-13 17:00N 68°57' E 033°02'0 0.0
2018-Feb-13 16:30N 68°57' E 033°02'0 0.0
2018-Feb-13 16:00N 68°57' E 033°02'0 0.0
2018-Feb-13 15:30N 68°57' E 033°02'0 0.0
2018-Feb-13 15:00N 68°57' E 033°02'0 0.0
2018-Feb-13 14:30N 68°57' E 033°02'0 0.0
2018-Feb-13 14:00N 68°57' E 033°02'0 0.0
2018-Feb-13 13:30N 68°57' E 033°02'0 0.0
2018-Feb-13 13:00N 68°57' E 033°02'0 0.0
2018-Feb-13 12:30N 68°57' E 033°02'0 0.0
2018-Feb-13 12:00N 68°57' E 033°02'0 0.0
2018-Feb-13 11:30N 68°57' E 033°02'0 0.0
2018-Feb-13 11:00N 68°57' E 033°02'0 0.0
2018-Feb-13 10:30N 68°57' E 033°02'0 0.0
2018-Feb-13 10:00N 68°57' E 033°02'0 0.0
2018-Feb-13 09:30N 68°57' E 033°02'0 0.0
2018-Feb-13 09:00N 68°57' E 033°02'0 0.0
2018-Feb-13 08:30N 68°57' E 033°02'0 0.0
2018-Feb-13 08:00N 68°57' E 033°02'0 0.0
2018-Feb-13 07:30N 68°57' E 033°02'0 0.0
2018-Feb-13 07:00N 68°57' E 033°02'0 0.0
2018-Feb-13 06:30N 68°57' E 033°02'0 0.0
2018-Feb-13 06:00N 68°57' E 033°02'0 0.0
2018-Feb-13 05:30N 68°57' E 033°02'0 0.0
2018-Feb-13 05:00N 68°57' E 033°02'0 0.0
2018-Feb-13 04:30N 68°57' E 033°02'0 0.0
2018-Feb-13 04:00N 68°57' E 033°02'0 0.0
2018-Feb-13 03:27N 68°57' E 033°02'0 0.0
2018-Feb-13 03:00N 68°57' E 033°02'0 0.0
2018-Feb-13 02:30N 68°57' E 033°02'0 0.0
2018-Feb-13 01:57N 68°57' E 033°02'0 0.0
2018-Feb-13 01:30N 68°57' E 033°02'0 0.0
2018-Feb-13 01:00N 68°57' E 033°02'0 0.0
2018-Feb-13 00:30N 68°57' E 033°02'0 0.0
2018-Feb-13 00:00N 68°57' E 033°02'0 0.0
2018-Feb-12 23:30N 68°57' E 033°02'0 0.0
2018-Feb-12 23:00N 68°57' E 033°02'0 0.0
2018-Feb-12 22:30N 68°57' E 033°02'0 0.0
2018-Feb-12 22:00N 68°57' E 033°02'0 0.0
2018-Feb-12 21:30N 68°57' E 033°02'0 0.0
2018-Feb-12 21:00N 68°57' E 033°02'0 0.0
2018-Feb-12 20:30N 68°57' E 033°02'0 0.0
2018-Feb-12 20:00N 68°57' E 033°02'0 0.0
2018-Feb-12 19:30N 68°57' E 033°02'0 0.0
2018-Feb-12 19:00N 68°57' E 033°02'0 0.0
2018-Feb-12 18:30N 68°57' E 033°02'0 0.0
2018-Feb-12 18:00N 68°57' E 033°02'0 0.0
2018-Feb-12 17:30N 68°57' E 033°02'0 0.0
2018-Feb-12 17:00N 68°57' E 033°02'0 0.0
2018-Feb-12 16:30N 68°57' E 033°02'0 0.0
2018-Feb-12 16:00N 68°57' E 033°02'0 0.0
2018-Feb-12 15:18N 68°57' E 033°02'0 0.0
2018-Feb-12 15:00N 68°57' E 033°02'0 0.0
2018-Feb-12 14:30N 68°57' E 033°02'0 0.0
2018-Feb-12 14:00N 68°57' E 033°02'0 0.0
2018-Feb-12 13:30N 68°57' E 033°02'0 0.0
2018-Feb-12 13:00N 68°57' E 033°02'0 0.0
2018-Feb-12 12:30N 68°57' E 033°02'0 0.0
2018-Feb-12 12:00N 68°57' E 033°02'0 0.0
2018-Feb-12 11:30N 68°57' E 033°02'0 0.0
2018-Feb-12 11:00N 68°57' E 033°02'0 0.0
2018-Feb-12 10:16N 68°57' E 033°02'0 0.0
2018-Feb-12 10:00N 68°57' E 033°02'0 0.0
2018-Feb-12 09:30N 68°57' E 033°02'0 0.0
2018-Feb-12 08:59N 68°57' E 033°02'0 0.0
2018-Feb-12 08:28N 68°57' E 033°02'0 0.0
2018-Feb-12 06:15N 68°57' E 033°02'0 0.0
2018-Feb-12 05:27N 68°57' E 033°02'0 0.0
2018-Feb-12 02:24N 68°57' E 033°02'0 0.0
2018-Feb-12 01:36N 68°57' E 033°02'0 0.0
2018-Feb-12 01:24N 68°57' E 033°02'0 0.0
2018-Feb-12 00:42N 68°57' E 033°02'0 0.0
2018-Feb-11 23:39N 68°57' E 033°02'0 0.0
2018-Feb-11 23:30N 68°57' E 033°02'0 0.0
2018-Feb-11 16:18N 68°57' E 033°02'0 0.0
2018-Feb-11 09:36N 68°57' E 033°02'0 0.0
2018-Feb-11 09:30N 68°57' E 033°02'0 0.0
2018-Feb-11 09:00N 68°57' E 033°02'0 0.0
2018-Feb-11 07:54N 68°57' E 033°02'0 0.0
2018-Feb-11 06:42N 68°57' E 033°02'0 0.0
2018-Feb-11 02:12N 68°57' E 033°02'0 0.0
2018-Feb-11 00:12N 68°57' E 033°02'0 0.0
2018-Feb-10 20:48N 68°57' E 033°02'0 0.0
2018-Feb-10 18:48N 68°57' E 033°02'0 0.0
2018-Feb-10 17:48N 68°57' E 033°02'0 0.0
2018-Feb-10 17:27N 68°57' E 033°02'0 0.0
2018-Feb-10 16:39N 68°57' E 033°02'0 0.0
2018-Feb-10 16:27N 68°57' E 033°02'0 0.0
2018-Feb-10 15:48N 68°57' E 033°02'0 0.0
2018-Feb-10 15:30N 68°57' E 033°02'0 0.0
2018-Feb-10 14:45N 68°57' E 033°02'0 0.0
2018-Feb-10 14:22N 68°57' E 033°02'0 0.0
2018-Feb-10 12:41N 68°57' E 033°02'0 0.0
2018-Feb-10 12:29N 68°57' E 033°02'  
Track history (hours):
 
Tides and Currents Weather Stations Pressure Air Temp Water Temp Dewpoint Dewpoint Depression Visibility Wind Speed Wind Dir Waves Ship Positions

Arctic Princess

Last reported at 2018-Feb-17 09:37 UTC. Time now 2018-Feb-25 08:14 UTC.
Position N 70°53' E 030°58'.

Length 69 m; draft 4.3 m.

Type: Cargo ship. MMSI: 273219900.

Date/timePositionNaut miles runAvg speedWind from/ knotsBaromVisibWave heightAir tempDewpointWater temp
2018-Feb-17 09:37N 70°53' E 030°58'1 9.3
2018-Feb-17 09:30N 70°52' E 030°60'5 9.4
2018-Feb-17 09:00N 70°48' E 031°09'5 9.3
2018-Feb-17 08:29N 70°45' E 031°18'5 8.8
2018-Feb-17 07:59N 70°41' E 031°27'103 7.9
2018-Feb-16 18:49N 69°03' E 033°05'2 6.3
2018-Feb-16 18:31N 69°01' E 033°03'3 6.5
2018-Feb-16 18:00N 68°58' E 033°02'2 2.9
2018-Feb-16 17:29N 68°57' E 033°02'0 0.0
2018-Feb-16 16:59N 68°57' E 033°02'0 0.0
2018-Feb-16 16:23N 68°57' E 033°02'0 0.0
2018-Feb-16 15:59N 68°57' E 033°02'0 0.0
2018-Feb-16 15:29N 68°57' E 033°02'0 0.0
2018-Feb-16 14:59N 68°57' E 033°02'0 0.0
2018-Feb-16 14:29N 68°57' E 033°02'0 0.0
2018-Feb-16 13:59N 68°57' E 033°02'0 0.0
2018-Feb-16 13:29N 68°57' E 033°02'0 0.0
2018-Feb-16 12:59N 68°57' E 033°02'0 0.0
2018-Feb-16 12:29N 68°57' E 033°02'0 0.0
2018-Feb-16 11:59N 68°57' E 033°02'0 0.0
2018-Feb-16 11:29N 68°57' E 033°02'0 0.0
2018-Feb-16 10:59N 68°57' E 033°02'0 0.0
2018-Feb-16 10:29N 68°57' E 033°02'0 0.0
2018-Feb-16 09:59N 68°57' E 033°02'0 0.0
2018-Feb-16 09:29N 68°57' E 033°02'0 0.0
2018-Feb-16 08:59N 68°57' E 033°02'0 0.0
2018-Feb-16 08:29N 68°57' E 033°02'0 0.0
2018-Feb-16 07:59N 68°57' E 033°02'0 0.0
2018-Feb-16 07:29N 68°57' E 033°02'0 0.0
2018-Feb-16 06:59N 68°57' E 033°02'0 0.0
2018-Feb-16 06:29N 68°57' E 033°02'0 0.0
2018-Feb-16 05:59N 68°57' E 033°02'0 0.0
2018-Feb-16 05:29N 68°57' E 033°02'0 0.0
2018-Feb-16 04:53N 68°57' E 033°02'0 0.0
2018-Feb-16 04:29N 68°57' E 033°02'0 0.0
2018-Feb-16 03:59N 68°57' E 033°02'0 0.0
2018-Feb-16 03:29N 68°57' E 033°02'0 0.0
2018-Feb-16 02:59N 68°57' E 033°02'0 0.0
2018-Feb-16 02:29N 68°57' E 033°02'0 0.0
2018-Feb-16 01:59N 68°57' E 033°02'0 0.0
2018-Feb-16 01:29N 68°57' E 033°02'0 0.0
2018-Feb-16 00:59N 68°57' E 033°02'0 0.0
2018-Feb-16 00:29N 68°57' E 033°02'0 0.0
2018-Feb-15 23:59N 68°57' E 033°02'0 0.0
2018-Feb-15 23:20N 68°57' E 033°02'0 0.0
2018-Feb-15 22:59N 68°57' E 033°02'0 0.0
2018-Feb-15 22:29N 68°57' E 033°02'0 0.0
2018-Feb-15 21:59N 68°57' E 033°02'0 0.0
2018-Feb-15 21:29N 68°57' E 033°02'0 0.0
2018-Feb-15 20:59N 68°57' E 033°02'0 0.0
2018-Feb-15 20:29N 68°57' E 033°02'0 0.0
2018-Feb-15 19:59N 68°57' E 033°02'0 0.0
2018-Feb-15 19:29N 68°57' E 033°02'0 0.0
2018-Feb-15 18:59N 68°57' E 033°02'0 0.0
2018-Feb-15 18:29N 68°57' E 033°02'0 0.0
2018-Feb-15 17:59N 68°57' E 033°02'0 0.0
2018-Feb-15 17:29N 68°57' E 033°02'0 0.0
2018-Feb-15 16:59N 68°57' E 033°02'0 0.0
2018-Feb-15 16:29N 68°57' E 033°02'0 0.0
2018-Feb-15 15:59N 68°57' E 033°02'0 0.0
2018-Feb-15 15:29N 68°57' E 033°02'0 0.0
2018-Feb-15 14:59N 68°57' E 033°02'0 0.0
2018-Feb-15 14:29N 68°57' E 033°02'0 0.0
2018-Feb-15 13:59N 68°57' E 033°02'0 0.0
2018-Feb-15 13:29N 68°57' E 033°02'0 0.0
2018-Feb-15 12:59N 68°57' E 033°02'0 0.0
2018-Feb-15 12:29N 68°57' E 033°02'0 0.0
2018-Feb-15 11:59N 68°57' E 033°02'0 0.0
2018-Feb-15 11:29N 68°57' E 033°02'0 0.0
2018-Feb-15 10:59N 68°57' E 033°02'0 0.0
2018-Feb-15 10:29N 68°57' E 033°02'0 0.0
2018-Feb-15 09:59N 68°57' E 033°02'0 0.0
2018-Feb-15 09:26N 68°57' E 033°02'0 0.0
2018-Feb-15 08:59N 68°57' E 033°02'0 0.0
2018-Feb-15 08:29N 68°57' E 033°02'0 0.0
2018-Feb-15 07:59N 68°57' E 033°02'0 0.0
2018-Feb-15 07:29N 68°57' E 033°02'0 0.0
2018-Feb-15 06:59N 68°57' E 033°02'0 0.0
2018-Feb-15 06:23N 68°57' E 033°02'0 0.0
2018-Feb-15 05:59N 68°57' E 033°02'0 0.0
2018-Feb-15 05:29N 68°57' E 033°02'0 0.0
2018-Feb-15 04:59N 68°57' E 033°02'0 0.0
2018-Feb-15 04:29N 68°57' E 033°02'0 0.0
2018-Feb-15 03:59N 68°57' E 033°02'0 0.0
2018-Feb-15 03:29N 68°57' E 033°02'0 0.0
2018-Feb-15 02:59N 68°57' E 033°02'0 0.0
2018-Feb-15 02:29N 68°57' E 033°02'0 0.0
2018-Feb-15 01:59N 68°57' E 033°02'0 0.0
2018-Feb-15 01:29N 68°57' E 033°02'0 0.0
2018-Feb-15 00:59N 68°57' E 033°02'0 0.0
2018-Feb-15 00:29N 68°57' E 033°02'0 0.0
2018-Feb-14 23:59N 68°57' E 033°02'0 0.0
2018-Feb-14 23:26N 68°57' E 033°02'0 0.0
2018-Feb-14 22:59N 68°57' E 033°02'0 0.0
2018-Feb-14 22:29N 68°57' E 033°02'0 0.0
2018-Feb-14 21:59N 68°57' E 033°02'0 0.0
2018-Feb-14 21:29N 68°57' E 033°02'0 0.0
2018-Feb-14 20:59N 68°57' E 033°02'0 0.0
2018-Feb-14 20:29N 68°57' E 033°02'0 0.0
2018-Feb-14 19:59N 68°57' E 033°02'0 0.0
2018-Feb-14 19:29N 68°57' E 033°02'0 0.0
2018-Feb-14 18:59N 68°57' E 033°02'0 0.0
2018-Feb-14 18:29N 68°57' E 033°02'0 0.0
2018-Feb-14 17:59N 68°57' E 033°02'0 0.0
2018-Feb-14 17:29N 68°57' E 033°02'0 0.0
2018-Feb-14 16:59N 68°57' E 033°02'0 0.0
2018-Feb-14 16:29N 68°57' E 033°02'0 0.0
2018-Feb-14 15:59N 68°57' E 033°02'0 0.0
2018-Feb-14 15:29N 68°57' E 033°02'0 0.0
2018-Feb-14 14:59N 68°57' E 033°02'0 0.0
2018-Feb-14 14:29N 68°57' E 033°02'0 0.0
2018-Feb-14 13:59N 68°57' E 033°02'0 0.0
2018-Feb-14 13:29N 68°57' E 033°02'0 0.0
2018-Feb-14 12:59N 68°57' E 033°02'0 0.0
2018-Feb-14 12:29N 68°57' E 033°02'0 0.0
2018-Feb-14 11:59N 68°57' E 033°02'0 0.0
2018-Feb-14 11:29N 68°57' E 033°02'0 0.0
2018-Feb-14 10:59N 68°57' E 033°02'0 0.0
2018-Feb-14 10:29N 68°57' E 033°02'0 0.0
2018-Feb-14 09:59N 68°57' E 033°02'0 0.0
2018-Feb-14 09:29N 68°57' E 033°02'0 0.0
2018-Feb-14 08:58N 68°57' E 033°02'0 0.0
2018-Feb-14 08:29N 68°57' E 033°02'0 0.0
2018-Feb-14 07:59N 68°57' E 033°02'0 0.0
2018-Feb-14 07:29N 68°57' E 033°02'0 0.0
2018-Feb-14 06:59N 68°57' E 033°02'0 0.0
2018-Feb-14 06:29N 68°57' E 033°02'0 0.0
2018-Feb-14 05:59N 68°57' E 033°02'0 0.0
2018-Feb-14 05:29N 68°57' E 033°02'0 0.0
2018-Feb-14 04:59N 68°57' E 033°02'0 0.0
2018-Feb-14 04:29N 68°57' E 033°02'0 0.0
2018-Feb-14 03:59N 68°57' E 033°02'0 0.0
2018-Feb-14 03:29N 68°57' E 033°02'0 0.0
2018-Feb-14 02:59N 68°57' E 033°02'0 0.0
2018-Feb-14 02:29N 68°57' E 033°02'0 0.0
2018-Feb-14 01:59N 68°57' E 033°02'0 0.0
2018-Feb-14 01:25N 68°57' E 033°02'0 0.0
2018-Feb-14 00:59N 68°57' E 033°02'0 0.0
2018-Feb-14 00:29N 68°57' E 033°02'0 0.0
2018-Feb-13 23:58N 68°57' E 033°02'0 0.0
2018-Feb-13 23:28N 68°57' E 033°02'0 0.0
2018-Feb-13 22:59N 68°57' E 033°02'0 0.0
2018-Feb-13 22:29N 68°57' E 033°02'0 0.0
2018-Feb-13 21:59N 68°57' E 033°02'0 0.0
2018-Feb-13 21:29N 68°57' E 033°02'0 0.0
2018-Feb-13 20:59N 68°57' E 033°02'0 0.0
2018-Feb-13 20:28N 68°57' E 033°02'0 0.0
2018-Feb-13 19:58N 68°57' E 033°02'0 0.0
2018-Feb-13 19:29N 68°57' E 033°02'0 0.0
2018-Feb-13 19:00N 68°57' E 033°02'0 0.0
2018-Feb-13 18:30N 68°57' E 033°02'0 0.0
2018-Feb-13 18:00N 68°57' E 033°02'0 0.0
2018-Feb-13 17:30N 68°57' E 033°02'0 0.0
2018-Feb-13 17:00N 68°57' E 033°02'0 0.0
2018-Feb-13 16:30N 68°57' E 033°02'0 0.0
2018-Feb-13 16:00N 68°57' E 033°02'0 0.0
2018-Feb-13 15:30N 68°57' E 033°02'0 0.0
2018-Feb-13 15:00N 68°57' E 033°02'0 0.0
2018-Feb-13 14:30N 68°57' E 033°02'0 0.0
2018-Feb-13 14:00N 68°57' E 033°02'0 0.0
2018-Feb-13 13:30N 68°57' E 033°02'0 0.0
2018-Feb-13 13:00N 68°57' E 033°02'0 0.0
2018-Feb-13 12:30N 68°57' E 033°02'0 0.0
2018-Feb-13 12:00N 68°57' E 033°02'0 0.0
2018-Feb-13 11:30N 68°57' E 033°02'0 0.0
2018-Feb-13 11:00N 68°57' E 033°02'0 0.0
2018-Feb-13 10:30N 68°57' E 033°02'0 0.0
2018-Feb-13 10:00N 68°57' E 033°02'0 0.0
2018-Feb-13 09:30N 68°57' E 033°02'0 0.0
2018-Feb-13 09:00N 68°57' E 033°02'0 0.0
2018-Feb-13 08:30N 68°57' E 033°02'0 0.0
2018-Feb-13 08:00N 68°57' E 033°02'0 0.0
2018-Feb-13 07:30N 68°57' E 033°02'0 0.0
2018-Feb-13 07:00N 68°57' E 033°02'0 0.0
2018-Feb-13 06:30N 68°57' E 033°02'0 0.0
2018-Feb-13 06:00N 68°57' E 033°02'0 0.0
2018-Feb-13 05:30N 68°57' E 033°02'0 0.0
2018-Feb-13 05:00N 68°57' E 033°02'0 0.0
2018-Feb-13 04:30N 68°57' E 033°02'0 0.0
2018-Feb-13 04:00N 68°57' E 033°02'0 0.0
2018-Feb-13 03:27N 68°57' E 033°02'0 0.0
2018-Feb-13 03:00N 68°57' E 033°02'0 0.0
2018-Feb-13 02:30N 68°57' E 033°02'0 0.0
2018-Feb-13 01:57N 68°57' E 033°02'0 0.0
2018-Feb-13 01:30N 68°57' E 033°02'0 0.0
2018-Feb-13 01:00N 68°57' E 033°02'0 0.0
2018-Feb-13 00:30N 68°57' E 033°02'0 0.0
2018-Feb-13 00:00N 68°57' E 033°02'0 0.0
2018-Feb-12 23:30N 68°57' E 033°02'0 0.0
2018-Feb-12 23:00N 68°57' E 033°02'0 0.0
2018-Feb-12 22:30N 68°57' E 033°02'0 0.0
2018-Feb-12 22:00N 68°57' E 033°02'0 0.0
2018-Feb-12 21:30N 68°57' E 033°02'0 0.0
2018-Feb-12 21:00N 68°57' E 033°02'0 0.0
2018-Feb-12 20:30N 68°57' E 033°02'0 0.0
2018-Feb-12 20:00N 68°57' E 033°02'0 0.0
2018-Feb-12 19:30N 68°57' E 033°02'0 0.0
2018-Feb-12 19:00N 68°57' E 033°02'0 0.0
2018-Feb-12 18:30N 68°57' E 033°02'0 0.0
2018-Feb-12 18:00N 68°57' E 033°02'0 0.0
2018-Feb-12 17:30N 68°57' E 033°02'0 0.0
2018-Feb-12 17:00N 68°57' E 033°02'0 0.0
2018-Feb-12 16:30N 68°57' E 033°02'0 0.0
2018-Feb-12 16:00N 68°57' E 033°02'0 0.0
2018-Feb-12 15:18N 68°57' E 033°02'0 0.0
2018-Feb-12 15:00N 68°57' E 033°02'0 0.0
2018-Feb-12 14:30N 68°57' E 033°02'0 0.0
2018-Feb-12 14:00N 68°57' E 033°02'0 0.0
2018-Feb-12 13:30N 68°57' E 033°02'0 0.0
2018-Feb-12 13:00N 68°57' E 033°02'0 0.0
2018-Feb-12 12:30N 68°57' E 033°02'0 0.0
2018-Feb-12 12:00N 68°57' E 033°02'0 0.0
2018-Feb-12 11:30N 68°57' E 033°02'0 0.0
2018-Feb-12 11:00N 68°57' E 033°02'0 0.0
2018-Feb-12 10:16N 68°57' E 033°02'0 0.0
2018-Feb-12 10:00N 68°57' E 033°02'0 0.0
2018-Feb-12 09:30N 68°57' E 033°02'0 0.0
2018-Feb-12 08:59N 68°57' E 033°02'0 0.0
2018-Feb-12 08:28N 68°57' E 033°02'0 0.0
2018-Feb-12 06:15N 68°57' E 033°02'0 0.0
2018-Feb-12 05:27N 68°57' E 033°02'0 0.0
2018-Feb-12 02:24N 68°57' E 033°02'0 0.0
2018-Feb-12 01:36N 68°57' E 033°02'0 0.0
2018-Feb-12 01:24N 68°57' E 033°02'0 0.0
2018-Feb-12 00:42N 68°57' E 033°02'0 0.0
2018-Feb-11 23:39N 68°57' E 033°02'0 0.0
2018-Feb-11 23:30N 68°57' E 033°02'0 0.0
2018-Feb-11 16:18N 68°57' E 033°02'0 0.0
2018-Feb-11 09:36N 68°57' E 033°02'0 0.0
2018-Feb-11 09:30N 68°57' E 033°02'0 0.0
2018-Feb-11 09:00N 68°57' E 033°02'0 0.0
2018-Feb-11 07:54N 68°57' E 033°02'0 0.0
2018-Feb-11 06:42N 68°57' E 033°02'0 0.0
2018-Feb-11 02:12N 68°57' E 033°02'0 0.0
2018-Feb-11 00:12N 68°57' E 033°02'0 0.0
2018-Feb-10 20:48N 68°57' E 033°02'0 0.0
2018-Feb-10 18:48N 68°57' E 033°02'0 0.0
2018-Feb-10 17:48N 68°57' E 033°02'0 0.0
2018-Feb-10 17:27N 68°57' E 033°02'0 0.0
2018-Feb-10 16:39N 68°57' E 033°02'0 0.0
2018-Feb-10 16:27N 68°57' E 033°02'0 0.0
2018-Feb-10 15:48N 68°57' E 033°02'0 0.0
2018-Feb-10 15:30N 68°57' E 033°02'0 0.0
2018-Feb-10 14:45N 68°57' E 033°02'0 0.0
2018-Feb-10 14:22N 68°57' E 033°02'0 0.0
2018-Feb-10 12:41N 68°57' E 033°02'0 0.0
2018-Feb-10 12:29N 68°57' E 033°02'  

Dump ship's entire track history